Silver Lake, Michigan
Current Conditions -  °F | °C
As of 6:15 PM on Thursday 27 Nov 2014 (Local Time) from KLDM Reporting Station
Overcast Overcast  
Wind Chill: 12°   Ceiling: 3700
Heat Index: 20°   Visibility: 10mi
Dew Point: 10°   Wind: 6mph
Humidity: 67%   Direction: 330°NNW
Pressure: 30.35"   Gusts: NA
Location:  43.6851°N, 86.4584°W
Report Text: KLDM 272315Z AUTO 33005KT 10SM BKN037 OVC043 M07/M12 A3035 RMK AO2 T10681120
Loading
Personal Weather Stations






























Interactive Weather Map New forecast layout! Learn more

10-Day Weather Forecast

Advertisements
Track Severe Weather on mobile